createdAt,value
2022-12-25T00:00:15.223Z,14.78
2022-12-25T00:02:48.158Z,14.25
2022-12-25T00:05:15.580Z,13.86
2022-12-25T00:07:42.816Z,14.05
2022-12-25T00:10:10.915Z,14.22
2022-12-25T00:12:38.561Z,14.39
2022-12-25T00:15:07.251Z,14.32
2022-12-25T00:17:34.482Z,14.40
2022-12-25T00:20:01.729Z,14.54
2022-12-25T00:22:30.342Z,14.42
2022-12-25T00:24:57.604Z,13.99
2022-12-25T00:27:26.379Z,14.08
2022-12-25T00:29:55.001Z,14.14
2022-12-25T00:32:22.220Z,14.15
2022-12-25T00:34:49.387Z,14.14
2022-12-25T00:37:16.586Z,14.23
2022-12-25T00:39:43.800Z,14.22
2022-12-25T00:42:20.549Z,14.18
2022-12-25T00:44:49.950Z,14.22
2022-12-25T00:47:18.403Z,14.35
2022-12-25T00:49:45.915Z,14.28
2022-12-25T00:52:13.425Z,14.42
2022-12-25T00:54:59.434Z,14.37
2022-12-25T00:57:26.660Z,14.34
2022-12-25T01:00:12.731Z,14.54
2022-12-25T01:02:39.989Z,14.62
2022-12-25T01:05:08.475Z,14.35
2022-12-25T01:07:35.857Z,14.43
2022-12-25T01:10:22.161Z,14.56
2022-12-25T01:12:51.242Z,14.36
2022-12-25T01:15:19.545Z,14.38
2022-12-25T01:17:47.395Z,14.50
2022-12-25T01:20:17.336Z,14.64
2022-12-25T01:22:45.680Z,14.74
2022-12-25T01:25:13.542Z,15.39
2022-12-25T01:27:42.199Z,13.88
2022-12-25T01:30:10.464Z,14.39
2022-12-25T01:32:37.781Z,15.03
2022-12-25T01:35:05.708Z,15.23
2022-12-25T01:37:33.102Z,14.71
2022-12-25T01:40:00.317Z,14.53
2022-12-25T01:42:27.758Z,14.34
2022-12-25T01:44:54.871Z,14.27
2022-12-25T01:47:22.105Z,14.31
2022-12-25T01:49:51.257Z,14.38
2022-12-25T01:52:25.204Z,14.66
2022-12-25T01:55:04.174Z,14.89
2022-12-25T01:57:36.208Z,14.68
2022-12-25T02:00:06.996Z,14.48
2022-12-25T02:02:35.132Z,14.65
2022-12-25T02:05:10.426Z,14.80
2022-12-25T02:07:41.452Z,15.05
2022-12-25T02:10:12.986Z,15.34
2022-12-25T02:12:41.888Z,15.33
2022-12-25T02:15:15.441Z,15.11
2022-12-25T02:18:05.496Z,15.02
2022-12-25T02:21:22.631Z,14.82
2022-12-25T02:24:18.879Z,14.43
2022-12-25T02:27:05.408Z,14.22
2022-12-25T02:29:55.642Z,14.21
2022-12-25T02:32:28.764Z,14.22
2022-12-25T02:35:17.766Z,14.69
2022-12-25T02:37:58.872Z,14.75
2022-12-25T02:40:37.478Z,15.10
2022-12-25T02:43:32.185Z,14.61
2022-12-25T02:46:24.517Z,14.33
2022-12-25T02:49:31.370Z,14.51
2022-12-25T02:52:42.109Z,14.28
2022-12-25T02:55:35.012Z,14.23
2022-12-25T02:58:29.761Z,14.50
2022-12-25T03:01:24.140Z,15.29
2022-12-25T03:04:15.416Z,15.19
2022-12-25T03:07:18.509Z,15.08
2022-12-25T03:10:21.812Z,14.59
2022-12-25T03:13:01.918Z,14.31
2022-12-25T03:15:48.038Z,14.18
2022-12-25T03:18:20.134Z,14.02
2022-12-25T03:21:05.782Z,14.11
2022-12-25T03:23:56.395Z,14.16
2022-12-25T03:26:44.331Z,14.51
2022-12-25T03:29:32.256Z,14.63
2022-12-25T03:32:37.852Z,14.46
2022-12-25T03:35:44.535Z,14.39
2022-12-25T03:38:47.641Z,14.83
2022-12-25T03:42:04.662Z,14.39
2022-12-25T03:45:21.325Z,15.04
2022-12-25T03:48:11.661Z,14.68
2022-12-25T03:51:06.352Z,14.87
2022-12-25T03:54:03.227Z,15.12
2022-12-25T03:56:52.038Z,14.19
2022-12-25T03:59:42.116Z,14.79
2022-12-25T04:02:28.311Z,14.83
2022-12-25T04:05:14.276Z,15.10
2022-12-25T04:08:00.456Z,14.99
2022-12-25T04:10:46.446Z,14.10
2022-12-25T04:13:32.430Z,14.56
2022-12-25T04:16:18.266Z,14.68
2022-12-25T04:19:04.160Z,14.79
2022-12-25T04:21:49.896Z,14.85
2022-12-25T04:24:35.637Z,13.96
2022-12-25T04:27:21.433Z,14.22
2022-12-25T04:30:07.141Z,14.01
2022-12-25T04:32:53.223Z,14.04
2022-12-25T04:35:38.795Z,14.06
2022-12-25T04:38:06.222Z,14.40
2022-12-25T04:40:33.241Z,14.36
2022-12-25T04:43:00.461Z,12.94
2022-12-25T04:45:27.630Z,13.84
2022-12-25T04:47:54.793Z,13.46
2022-12-25T04:50:22.152Z,13.55
2022-12-25T04:52:49.488Z,14.01
2022-12-25T04:55:16.716Z,13.59
2022-12-25T04:57:43.900Z,13.48
2022-12-25T05:00:11.720Z,13.53
2022-12-25T05:02:39.134Z,12.81
2022-12-25T05:05:06.565Z,13.31
2022-12-25T05:07:34.127Z,13.60
2022-12-25T05:10:01.319Z,13.82
2022-12-25T05:12:28.470Z,14.32
2022-12-25T05:14:55.663Z,14.48
2022-12-25T05:17:23.048Z,14.37
2022-12-25T05:19:50.210Z,14.00
2022-12-25T05:22:17.394Z,13.93
2022-12-25T05:24:44.547Z,13.86
2022-12-25T05:27:11.766Z,14.32
2022-12-25T05:29:38.934Z,12.69
2022-12-25T05:32:06.517Z,13.48
2022-12-25T05:34:33.769Z,14.13
2022-12-25T05:37:00.957Z,13.32
2022-12-25T05:39:28.183Z,12.29
2022-12-25T05:41:55.471Z,12.40
2022-12-25T05:44:22.863Z,12.71
2022-12-25T05:46:50.087Z,13.46
2022-12-25T05:49:17.269Z,13.61
2022-12-25T05:51:44.523Z,11.80
2022-12-25T05:54:11.795Z,12.69
2022-12-25T05:56:39.017Z,13.05
2022-12-25T05:59:06.237Z,13.39
2022-12-25T06:01:33.573Z,13.45
2022-12-25T06:04:00.951Z,13.77
2022-12-25T06:06:28.180Z,14.20
2022-12-25T06:08:56.164Z,13.91
2022-12-25T06:11:23.802Z,14.19
2022-12-25T06:13:52.569Z,14.15
2022-12-25T06:16:20.515Z,14.09
2022-12-25T06:18:52.559Z,12.16
2022-12-25T06:21:20.040Z,13.09
2022-12-25T06:23:47.554Z,13.96
2022-12-25T06:26:19.357Z,13.47
2022-12-25T06:28:47.665Z,13.96
2022-12-25T06:31:20.046Z,14.16
2022-12-25T06:33:48.329Z,14.76
2022-12-25T06:36:20.290Z,13.30
2022-12-25T06:38:47.925Z,13.98
2022-12-25T06:41:19.883Z,14.80
2022-12-25T06:43:57.081Z,14.73
2022-12-25T06:46:27.578Z,14.37
2022-12-25T06:48:55.378Z,12.87
2022-12-25T06:51:27.085Z,14.69
2022-12-25T06:53:55.907Z,13.47
2022-12-25T06:56:27.512Z,14.09
2022-12-25T06:59:02.552Z,14.10
2022-12-25T07:01:46.337Z,15.06
2022-12-25T07:04:23.949Z,13.17
2022-12-25T07:06:51.241Z,13.38
2022-12-25T07:09:18.384Z,14.41
2022-12-25T07:11:45.661Z,13.70
2022-12-25T07:14:23.834Z,14.38
2022-12-25T07:16:52.153Z,14.42
2022-12-25T07:19:19.553Z,14.03
2022-12-25T07:21:47.466Z,14.44
2022-12-25T07:24:22.903Z,14.81
2022-12-25T07:26:51.968Z,14.77
2022-12-25T07:29:22.671Z,15.27
2022-12-25T07:31:50.002Z,15.45
2022-12-25T07:34:18.482Z,15.50
2022-12-25T07:36:45.932Z,16.01
2022-12-25T07:39:13.418Z,14.35
2022-12-25T07:41:40.727Z,15.39
2022-12-25T07:44:07.900Z,16.19
2022-12-25T07:46:35.286Z,16.17
2022-12-25T07:49:04.585Z,15.64
2022-12-25T07:51:34.143Z,15.87
2022-12-25T07:54:01.291Z,16.34
2022-12-25T07:56:28.653Z,16.06
2022-12-25T07:58:55.805Z,16.68
2022-12-25T08:01:27.040Z,15.28
2022-12-25T08:04:01.561Z,16.37
2022-12-25T08:06:38.608Z,17.02
2022-12-25T08:11:57.271Z,16.07
2022-12-25T08:15:05.309Z,16.31
2022-12-25T08:17:57.891Z,16.22
2022-12-25T08:20:39.386Z,16.81
2022-12-25T08:23:08.179Z,16.79
2022-12-25T08:25:35.572Z,16.81
2022-12-25T08:28:08.886Z,16.53
2022-12-25T08:30:40.146Z,17.02
2022-12-25T08:33:07.999Z,17.21
2022-12-25T08:35:41.571Z,17.71
2022-12-25T08:38:11.580Z,17.73
2022-12-25T08:40:38.875Z,17.16
2022-12-25T08:43:08.841Z,17.41
2022-12-25T08:45:36.089Z,17.68
2022-12-25T08:48:03.468Z,16.98
2022-12-25T08:50:32.560Z,17.41
2022-12-25T08:53:00.460Z,17.51
2022-12-25T08:55:27.807Z,17.01
2022-12-25T08:57:57.769Z,16.08
2022-12-25T09:00:24.977Z,15.97
2022-12-25T09:02:53.662Z,16.14
2022-12-25T09:05:20.931Z,16.56
2022-12-25T09:07:48.319Z,16.47
2022-12-25T09:10:15.613Z,17.49
2022-12-25T09:12:44.134Z,17.81
2022-12-25T09:15:13.394Z,16.59
2022-12-25T09:17:40.552Z,17.75
2022-12-25T09:20:08.309Z,17.54
2022-12-25T09:22:35.891Z,17.96
2022-12-25T09:25:04.079Z,17.96
2022-12-25T09:27:31.312Z,17.95
2022-12-25T09:30:03.510Z,17.64
2022-12-25T09:32:30.817Z,18.51
2022-12-25T09:34:58.151Z,17.05
2022-12-25T09:37:28.886Z,17.85
2022-12-25T09:39:56.585Z,17.73
2022-12-25T09:42:31.445Z,19.05
2022-12-25T09:45:06.591Z,19.51
2022-12-25T09:47:40.248Z,19.02
2022-12-25T09:50:29.203Z,20.08
2022-12-25T09:53:14.977Z,20.20
2022-12-25T09:56:12.713Z,17.49
2022-12-25T09:58:40.247Z,17.89
2022-12-25T10:01:16.642Z,19.83
2022-12-25T10:04:30.107Z,20.00
2022-12-25T10:07:20.896Z,20.81
2022-12-25T10:10:14.165Z,21.49
2022-12-25T10:13:21.588Z,21.13
2022-12-25T10:16:30.135Z,20.38
2022-12-25T10:19:14.661Z,20.46
2022-12-25T10:21:42.628Z,19.42
2022-12-25T10:24:18.988Z,18.50
2022-12-25T10:26:47.095Z,17.76
2022-12-25T10:29:17.361Z,17.95
2022-12-25T10:31:53.795Z,18.49
2022-12-25T10:34:24.157Z,19.49
2022-12-25T10:36:52.451Z,18.98
2022-12-25T10:39:28.255Z,18.92
2022-12-25T10:42:10.864Z,19.93
2022-12-25T10:44:38.329Z,19.76
2022-12-25T10:47:06.110Z,20.09
2022-12-25T10:49:39.956Z,20.17
2022-12-25T10:52:27.427Z,19.71
2022-12-25T10:54:56.581Z,19.78
2022-12-25T10:57:26.230Z,19.85
2022-12-25T10:59:57.121Z,20.19
2022-12-25T11:02:44.737Z,20.56
2022-12-25T11:05:34.296Z,22.77
2022-12-25T11:08:03.742Z,22.77
2022-12-25T11:10:44.288Z,23.20
2022-12-25T11:13:48.287Z,21.42
2022-12-25T11:16:26.276Z,22.21
2022-12-25T11:18:54.983Z,21.28
2022-12-25T11:21:52.207Z,21.99
2022-12-25T11:24:22.478Z,22.84
2022-12-25T11:26:54.171Z,23.15
2022-12-25T11:29:42.200Z,25.00
2022-12-25T11:32:21.151Z,24.82
2022-12-25T11:34:51.125Z,23.19
2022-12-25T11:37:29.831Z,23.15
2022-12-25T11:39:57.530Z,21.74
2022-12-25T11:42:39.238Z,21.63
2022-12-25T11:45:13.518Z,19.40
2022-12-25T11:48:06.220Z,20.12
2022-12-25T11:50:43.797Z,21.24
2022-12-25T11:53:44.321Z,21.32
2022-12-25T11:56:28.858Z,22.32
2022-12-25T11:59:18.376Z,16.22
2022-12-25T12:01:55.278Z,17.68
2022-12-25T12:04:42.728Z,18.25
2022-12-25T12:07:24.693Z,17.67
2022-12-25T12:09:57.435Z,16.32
2022-12-25T12:12:31.913Z,16.13
2022-12-25T12:15:43.410Z,19.00
2022-12-25T12:18:26.796Z,18.03
2022-12-25T12:21:00.012Z,19.52
2022-12-25T12:23:30.673Z,18.75
2022-12-25T12:25:58.801Z,17.11
2022-12-25T12:28:44.743Z,16.52
2022-12-25T12:31:12.823Z,15.92
2022-12-25T12:33:56.660Z,16.02
2022-12-25T12:36:36.286Z,16.98
2022-12-25T12:39:06.147Z,15.56
2022-12-25T12:41:48.673Z,15.86
2022-12-25T12:44:17.829Z,18.56
2022-12-25T12:46:57.736Z,20.92
2022-12-25T12:49:27.833Z,20.45
2022-12-25T12:52:36.819Z,18.19
2022-12-25T12:55:13.893Z,20.42
2022-12-25T12:57:41.840Z,26.38
2022-12-25T13:00:20.155Z,21.40
2022-12-25T13:03:10.422Z,22.65
2022-12-25T13:06:01.142Z,25.42
2022-12-25T13:09:07.973Z,26.45
2022-12-25T13:11:44.329Z,24.81
2022-12-25T13:14:19.195Z,24.03
2022-12-25T13:16:54.288Z,24.47
2022-12-25T13:19:28.960Z,23.41
2022-12-25T13:22:03.617Z,22.49
2022-12-25T13:24:36.380Z,21.20
2022-12-25T13:27:24.863Z,22.36
2022-12-25T13:29:52.156Z,20.82
2022-12-25T13:32:25.367Z,21.40
2022-12-25T13:34:54.245Z,21.89
2022-12-25T13:37:28.667Z,22.45
2022-12-25T13:40:01.261Z,23.37
2022-12-25T13:42:39.998Z,24.10
2022-12-25T13:45:13.071Z,23.50
2022-12-25T13:47:43.325Z,20.83
2022-12-25T13:50:37.031Z,22.29
2022-12-25T13:53:17.983Z,22.73
2022-12-25T13:55:56.198Z,22.26
2022-12-25T13:58:36.973Z,22.13
2022-12-25T14:01:04.595Z,21.82
2022-12-25T14:03:46.148Z,21.74
2022-12-25T14:06:28.753Z,21.71
2022-12-25T14:08:58.983Z,21.81
2022-12-25T14:11:31.401Z,21.65
2022-12-25T14:14:07.376Z,21.79
2022-12-25T14:16:35.279Z,20.63
2022-12-25T14:19:03.755Z,20.58
2022-12-25T14:21:36.533Z,20.90
2022-12-25T14:24:05.049Z,20.49
2022-12-25T14:26:33.907Z,20.26
2022-12-25T14:29:15.679Z,20.12
2022-12-25T14:31:47.164Z,20.28
2022-12-25T14:34:23.230Z,20.41
2022-12-25T14:36:53.313Z,20.59
2022-12-25T14:39:35.084Z,20.39
2022-12-25T14:42:19.076Z,19.92
2022-12-25T14:45:04.892Z,20.44
2022-12-25T14:47:39.487Z,20.16
2022-12-25T14:50:29.510Z,20.11
2022-12-25T14:52:58.886Z,19.93
2022-12-25T14:55:29.377Z,19.79
2022-12-25T14:58:08.267Z,19.91
2022-12-25T15:00:40.400Z,20.14
2022-12-25T15:03:26.561Z,19.94
2022-12-25T15:06:04.414Z,19.58
2022-12-25T15:08:34.243Z,19.34
2022-12-25T15:11:03.175Z,19.56
2022-12-25T15:13:32.781Z,19.70
2022-12-25T15:16:14.232Z,20.01
2022-12-25T15:18:46.055Z,19.85
2022-12-25T15:21:29.847Z,19.94
2022-12-25T15:24:00.080Z,19.61
2022-12-25T15:26:30.797Z,19.49
2022-12-25T15:28:58.999Z,19.54
2022-12-25T15:31:32.075Z,19.53
2022-12-25T15:34:04.002Z,19.48
2022-12-25T15:36:31.825Z,19.18
2022-12-25T15:38:59.120Z,19.44
2022-12-25T15:41:51.606Z,19.46
2022-12-25T15:44:19.338Z,19.26
2022-12-25T15:46:47.670Z,19.41
2022-12-25T15:49:16.465Z,19.44
2022-12-25T15:51:45.228Z,19.02
2022-12-25T15:54:13.171Z,18.34
2022-12-25T15:56:51.530Z,17.88
2022-12-25T15:59:21.162Z,18.07
2022-12-25T16:01:56.172Z,18.14
2022-12-25T16:04:25.641Z,18.32
2022-12-25T16:06:53.287Z,18.58
2022-12-25T16:09:22.486Z,18.16
2022-12-25T16:11:50.783Z,18.12
2022-12-25T16:14:19.700Z,17.94
2022-12-25T16:16:46.969Z,18.29
2022-12-25T16:19:14.157Z,17.71
2022-12-25T16:21:45.752Z,17.70
2022-12-25T16:24:14.242Z,17.58
2022-12-25T16:26:44.705Z,17.54
2022-12-25T16:29:12.047Z,17.72
2022-12-25T16:31:40.630Z,17.79
2022-12-25T16:34:09.045Z,17.50
2022-12-25T16:36:37.734Z,17.34
2022-12-25T16:39:06.216Z,17.44
2022-12-25T16:41:33.799Z,17.44
2022-12-25T16:44:09.463Z,17.40
2022-12-25T16:46:39.717Z,17.89
2022-12-25T16:49:07.311Z,17.49
2022-12-25T16:51:34.753Z,17.25
2022-12-25T16:54:02.080Z,17.47
2022-12-25T16:56:31.069Z,17.72
2022-12-25T16:58:59.623Z,17.73
2022-12-25T17:01:27.187Z,17.20
2022-12-25T17:03:54.769Z,17.49
2022-12-25T17:06:26.027Z,17.94
2022-12-25T17:08:58.625Z,17.82
2022-12-25T17:11:30.512Z,17.93
2022-12-25T17:14:04.597Z,17.97
2022-12-25T17:16:35.900Z,17.70
2022-12-25T17:19:21.637Z,17.85
2022-12-25T17:21:49.258Z,17.93
2022-12-25T17:24:17.175Z,17.99
2022-12-25T17:26:45.299Z,17.88
2022-12-25T17:29:21.423Z,17.65
2022-12-25T17:31:51.622Z,17.82
2022-12-25T17:34:20.791Z,17.97
2022-12-25T17:36:48.521Z,17.89
2022-12-25T17:39:15.946Z,17.29
2022-12-25T17:41:43.250Z,17.50
2022-12-25T17:44:11.716Z,17.84
2022-12-25T17:46:40.184Z,17.56
2022-12-25T17:49:08.793Z,16.95
2022-12-25T17:51:36.726Z,16.10
2022-12-25T17:54:04.404Z,16.70
2022-12-25T17:56:34.885Z,16.61
2022-12-25T17:59:08.589Z,17.12
2022-12-25T18:01:38.541Z,17.40
2022-12-25T18:04:07.561Z,17.76
2022-12-25T18:06:37.407Z,17.61
2022-12-25T18:09:06.515Z,17.42
2022-12-25T18:11:39.493Z,17.19
2022-12-25T18:14:09.579Z,17.45
2022-12-25T18:16:42.427Z,17.72
2022-12-25T18:19:14.478Z,17.57
2022-12-25T18:21:42.218Z,17.83
2022-12-25T18:24:10.637Z,17.96
2022-12-25T18:26:38.744Z,18.09
2022-12-25T18:29:08.138Z,17.91
2022-12-25T18:31:36.292Z,17.87
2022-12-25T18:34:03.778Z,17.33
2022-12-25T18:36:31.930Z,15.84
2022-12-25T18:39:00.128Z,16.98
2022-12-25T18:41:28.950Z,17.01
2022-12-25T18:43:56.589Z,16.64
2022-12-25T18:46:28.057Z,17.33
2022-12-25T18:48:57.774Z,17.69
2022-12-25T18:51:28.703Z,17.74
2022-12-25T18:54:01.855Z,17.75
2022-12-25T18:56:29.784Z,17.76
2022-12-25T18:59:00.985Z,17.56
2022-12-25T19:01:28.700Z,17.94
2022-12-25T19:04:04.715Z,18.14
2022-12-25T19:06:36.455Z,18.27
2022-12-25T19:09:09.348Z,17.77
2022-12-25T19:11:46.125Z,17.17
2022-12-25T19:14:15.057Z,16.95
2022-12-25T19:16:43.316Z,17.11
2022-12-25T19:19:10.790Z,17.41
2022-12-25T19:21:39.111Z,15.74
2022-12-25T19:24:11.612Z,15.49
2022-12-25T19:26:39.646Z,17.04
2022-12-25T19:29:08.452Z,16.67
2022-12-25T19:31:42.810Z,16.63
2022-12-25T19:34:13.821Z,16.71
2022-12-25T19:36:51.138Z,16.84
2022-12-25T19:39:49.542Z,16.93
2022-12-25T19:42:23.210Z,17.11
2022-12-25T19:44:50.258Z,14.95
2022-12-25T19:47:26.062Z,14.78
2022-12-25T19:49:57.352Z,16.27
2022-12-25T19:52:33.674Z,16.70
2022-12-25T19:55:09.167Z,16.84
2022-12-25T19:57:45.747Z,16.27
2022-12-25T20:00:45.383Z,16.71
2022-12-25T20:03:20.878Z,16.93
2022-12-25T20:06:14.826Z,17.46
2022-12-25T20:08:42.308Z,17.44
2022-12-25T20:11:12.589Z,17.77
2022-12-25T20:13:41.598Z,17.98
2022-12-25T20:16:18.782Z,16.84
2022-12-25T20:18:51.943Z,16.10
2022-12-25T20:21:31.057Z,16.85
2022-12-25T20:24:06.832Z,16.79
2022-12-25T20:26:59.938Z,14.96
2022-12-25T20:29:33.922Z,16.57
2022-12-25T20:32:11.131Z,16.71
2022-12-25T20:34:47.464Z,16.72
2022-12-25T20:37:23.893Z,17.08
2022-12-25T20:39:51.637Z,15.97
2022-12-25T20:42:33.152Z,13.66
2022-12-25T20:45:17.895Z,15.73
2022-12-25T20:47:45.455Z,16.16
2022-12-25T20:50:22.406Z,16.43
2022-12-25T20:53:00.988Z,16.36
2022-12-25T20:55:31.545Z,16.00
2022-12-25T20:58:02.899Z,16.74
2022-12-25T21:00:30.929Z,17.09
2022-12-25T21:03:02.931Z,16.40
2022-12-25T21:05:35.020Z,16.62
2022-12-25T21:08:08.711Z,16.93
2022-12-25T21:10:40.655Z,16.35
2022-12-25T21:13:13.575Z,16.31
2022-12-25T21:15:50.227Z,16.30
2022-12-25T21:18:23.747Z,16.71
2022-12-25T21:21:07.967Z,15.74
2022-12-25T21:23:43.184Z,15.26
2022-12-25T21:26:44.467Z,15.49
2022-12-25T21:29:24.664Z,16.23
2022-12-25T21:32:15.851Z,15.34
2022-12-25T21:34:46.143Z,15.52
2022-12-25T21:37:24.251Z,16.10
2022-12-25T21:39:53.140Z,16.43
2022-12-25T21:42:22.170Z,15.55
2022-12-25T21:44:54.881Z,15.83
2022-12-25T21:48:00.231Z,15.86
2022-12-25T21:50:39.389Z,15.91
2022-12-25T21:53:07.834Z,15.77
2022-12-25T21:55:35.370Z,15.97
2022-12-25T21:58:03.290Z,16.24
2022-12-25T22:00:30.635Z,15.52
2022-12-25T22:02:57.828Z,15.17
2022-12-25T22:05:44.030Z,15.00
2022-12-25T22:08:11.303Z,15.16
2022-12-25T22:10:38.630Z,15.53
2022-12-25T22:13:24.533Z,15.50
2022-12-25T22:16:10.591Z,14.96
2022-12-25T22:18:57.437Z,14.95
2022-12-25T22:21:27.600Z,14.96
2022-12-25T22:23:57.629Z,14.74
2022-12-25T22:26:26.568Z,14.95
2022-12-25T22:28:55.049Z,15.08
2022-12-25T22:31:22.553Z,14.92
2022-12-25T22:33:49.830Z,14.70
2022-12-25T22:36:19.319Z,15.03
2022-12-25T22:38:47.549Z,14.93
2022-12-25T22:41:14.965Z,15.13
2022-12-25T22:46:35.123Z,14.98
2022-12-25T22:49:02.300Z,14.90
2022-12-25T22:51:29.728Z,14.98
2022-12-25T22:54:03.516Z,15.21
2022-12-25T22:56:53.555Z,15.39
2022-12-25T22:59:23.345Z,15.42
2022-12-25T23:01:51.911Z,14.94
2022-12-25T23:04:20.434Z,14.88
2022-12-25T23:06:49.303Z,14.68
2022-12-25T23:09:24.520Z,14.58
2022-12-25T23:11:57.896Z,14.63
2022-12-25T23:14:41.146Z,14.72
2022-12-25T23:17:33.106Z,14.73
2022-12-25T23:20:20.935Z,14.63
2022-12-25T23:23:06.662Z,14.69
2022-12-25T23:25:54.766Z,14.68
2022-12-25T23:28:40.599Z,14.70
2022-12-25T23:31:09.924Z,14.40
2022-12-25T23:33:37.344Z,14.47
2022-12-25T23:36:05.816Z,14.42
2022-12-25T23:38:33.257Z,14.37
2022-12-25T23:41:01.069Z,14.24
2022-12-25T23:43:29.897Z,14.35
2022-12-25T23:45:57.429Z,14.50
2022-12-25T23:48:26.958Z,13.95
2022-12-25T23:50:54.282Z,14.04
2022-12-25T23:53:21.481Z,14.18
2022-12-25T23:55:55.369Z,14.08
2022-12-25T23:58:24.492Z,14.07
